Time;durP1;ratioP1;P1;durP2;ratioP2;P2;SDS_P1;SDS_P2;PMS_P1;PMS_P2;Temp;Humidity;BMP_temperature;BMP_pressure;BME280_temperature;BME280_humidity;BME280_pressure;Samples;Min_cycle;Max_cycle;Signal;HPM_P1;HPM_P2
2023/05/17 00:01:41;;;;;;;1.55;1.08;;;18.10;57.80;;;;;;5073013;28;20178;-62
2023/05/17 00:04:06;;;;;;;3.38;1.50;;;18.10;57.80;;;;;;5073162;28;20515;-62
2023/05/17 00:06:33;;;;;;;2.13;1.35;;;18.10;57.80;;;;;;5073590;28;20200;-62
2023/05/17 00:08:59;;;;;;;2.17;1.30;;;18.10;57.90;;;;;;5072781;28;20175;-62
2023/05/17 00:11:24;;;;;;;3.78;1.60;;;18.10;57.90;;;;;;5072954;28;20187;-61
2023/05/17 00:13:50;;;;;;;1.75;1.35;;;18.10;58.50;;;;;;5071944;28;20174;-61
2023/05/17 00:16:15;;;;;;;1.50;1.10;;;18.10;57.90;;;;;;5072748;28;20257;-62
2023/05/17 00:18:41;;;;;;;2.08;1.20;;;18.10;58.00;;;;;;5073193;28;20178;-61
2023/05/17 00:21:06;;;;;;;1.50;1.25;;;18.10;57.90;;;;;;5072246;28;20213;-61
2023/05/17 00:23:32;;;;;;;2.35;1.58;;;18.10;57.90;;;;;;5073133;28;20647;-61
2023/05/17 00:25:57;;;;;;;3.33;1.95;;;18.00;57.90;;;;;;5072999;28;20235;-62
2023/05/17 00:28:23;;;;;;;3.78;1.88;;;18.10;57.90;;;;;;5071997;28;20296;-62
2023/05/17 00:30:48;;;;;;;1.52;1.40;;;18.10;57.90;;;;;;5073271;28;20284;-62
2023/05/17 00:33:14;;;;;;;3.17;1.60;;;18.10;58.00;;;;;;5072872;28;20231;-62
2023/05/17 00:35:39;;;;;;;1.73;1.27;;;18.00;57.90;;;;;;5072209;28;20327;-62
2023/05/17 00:38:05;;;;;;;1.65;1.45;;;18.00;57.90;;;;;;5072756;28;20236;-62
2023/05/17 00:40:30;;;;;;;2.60;1.80;;;18.10;58.00;;;;;;5072912;28;20633;-61
2023/05/17 00:42:56;;;;;;;1.73;1.30;;;18.00;57.90;;;;;;5072356;28;20181;-62
2023/05/17 00:45:22;;;;;;;2.58;1.40;;;18.00;57.90;;;;;;5072838;28;20163;-61
2023/05/17 00:47:47;;;;;;;1.65;1.13;;;18.00;57.90;;;;;;5072908;28;20231;-61
2023/05/17 00:50:13;;;;;;;2.55;1.60;;;18.00;57.90;;;;;;5071782;28;20269;-61
2023/05/17 00:52:38;;;;;;;2.28;1.73;;;18.00;57.90;;;;;;5071961;28;20174;-61
2023/05/17 00:55:04;;;;;;;2.38;1.73;;;18.00;57.90;;;;;;5071609;28;20522;-61
2023/05/17 00:57:30;;;;;;;2.03;1.52;;;18.00;57.90;;;;;;5071980;28;20240;-61
2023/05/17 00:59:56;;;;;;;2.38;1.38;;;18.00;58.00;;;;;;5071723;28;20216;-62
2023/05/17 01:02:22;;;;;;;3.28;1.80;;;18.00;57.90;;;;;;5072624;28;20183;-62
2023/05/17 01:04:48;;;;;;;1.83;1.40;;;18.00;58.00;;;;;;5072151;28;20174;-62
2023/05/17 01:07:13;;;;;;;2.17;1.42;;;18.00;58.00;;;;;;5072533;28;20629;-62
2023/05/17 01:09:39;;;;;;;1.70;1.20;;;18.00;57.90;;;;;;5072572;28;20230;-61
2023/05/17 01:12:17;;;;;;;2.13;1.65;;;18.00;58.00;;;;;;5071822;28;20276;-61
2023/05/17 01:14:54;;;;;;;1.30;1.20;;;17.90;57.90;;;;;;5072441;28;20629;-60
2023/05/17 01:17:26;;;;;;;2.58;1.67;;;17.90;57.90;;;;;;5071638;28;20205;-61
2023/05/17 01:20:05;;;;;;;2.05;1.77;;;18.00;58.00;;;;;;5071467;28;20672;-61
2023/05/17 01:22:35;;;;;;;2.08;1.38;;;17.90;58.00;;;;;;5072411;28;20269;-61
2023/05/17 01:25:03;;;;;;;2.13;1.50;;;18.00;58.00;;;;;;5072498;28;20185;-61
2023/05/17 01:27:29;;;;;;;1.73;1.50;;;17.90;58.00;;;;;;5076221;28;20547;-61
2023/05/17 01:29:55;;;;;;;2.65;1.85;;;17.90;58.00;;;;;;5075399;28;20174;-62
2023/05/17 01:32:21;;;;;;;2.40;1.60;;;17.90;58.00;;;;;;5074314;28;20208;-62
2023/05/17 01:34:46;;;;;;;2.92;1.55;;;18.00;58.00;;;;;;5076257;28;20241;-62
2023/05/17 01:37:12;;;;;;;4.07;1.80;;;17.90;58.00;;;;;;5076144;28;20210;-61
2023/05/17 01:39:37;;;;;;;1.95;1.50;;;17.90;58.00;;;;;;5074617;28;20201;-61
2023/05/17 01:42:19;;;;;;;2.70;1.60;;;17.90;58.00;;;;;;5075033;28;20171;-61
2023/05/17 01:44:58;;;;;;;2.95;1.85;;;17.80;58.00;;;;;;5075016;28;20194;-61
2023/05/17 01:47:46;;;;;;;2.20;1.85;;;17.90;58.00;;;;;;5073817;28;20174;-61
2023/05/17 01:50:12;;;;;;;1.90;1.65;;;17.90;58.00;;;;;;5074914;28;20178;-61
2023/05/17 01:53:02;;;;;;;2.45;1.42;;;17.90;58.00;;;;;;5074305;28;20201;-61
2023/05/17 01:56:06;;;;;;;2.08;1.45;;;17.80;58.00;;;;;;5074857;28;20206;-61
2023/05/17 01:58:33;;;;;;;3.80;1.95;;;17.80;58.00;;;;;;5033983;28;20276;-61
2023/05/17 02:00:59;;;;;;;2.17;1.67;;;17.80;58.00;;;;;;5063462;28;20629;-62
2023/05/17 02:03:26;;;;;;;2.55;1.27;;;17.80;58.00;;;;;;5074359;28;20186;-62
2023/05/17 02:05:52;;;;;;;2.17;1.52;;;17.80;58.00;;;;;;5074598;28;20261;-61
2023/05/17 02:08:17;;;;;;;2.28;1.70;;;17.80;58.00;;;;;;5074684;28;20198;-61
2023/05/17 02:10:43;;;;;;;2.10;1.70;;;17.80;58.00;;;;;;5074707;28;20170;-61
2023/05/17 02:13:08;;;;;;;3.58;2.30;;;17.80;58.00;;;;;;5075592;28;20175;-60
2023/05/17 02:15:34;;;;;;;3.30;1.85;;;17.80;58.00;;;;;;5074807;28;20531;-61
2023/05/17 02:17:59;;;;;;;1.92;1.70;;;17.80;58.60;;;;;;5075580;28;20699;-61
2023/05/17 02:20:25;;;;;;;2.33;1.80;;;17.80;58.60;;;;;;5075051;28;20223;-61
2023/05/17 02:22:50;;;;;;;3.08;2.03;;;17.80;58.00;;;;;;5075138;28;20210;-61
2023/05/17 02:25:16;;;;;;;3.03;1.65;;;17.80;58.00;;;;;;5075333;28;20629;-61
2023/05/17 02:27:41;;;;;;;2.85;1.90;;;17.80;58.00;;;;;;5074778;28;20653;-61
2023/05/17 02:30:08;;;;;;;3.53;1.85;;;17.80;58.00;;;;;;5075143;28;20171;-62
2023/05/17 02:32:33;;;;;;;3.22;1.60;;;17.80;58.00;;;;;;5075216;28;20210;-62
2023/05/17 02:34:59;;;;;;;2.40;1.90;;;17.80;58.00;;;;;;5074402;28;20249;-62
2023/05/17 02:37:24;;;;;;;2.90;2.10;;;17.80;58.00;;;;;;5073814;28;20301;-61
2023/05/17 02:39:50;;;;;;;3.20;2.05;;;17.80;58.00;;;;;;5075356;28;20174;-62
2023/05/17 02:42:16;;;;;;;2.33;1.77;;;17.80;58.00;;;;;;5074263;28;20219;-62
2023/05/17 02:44:41;;;;;;;2.97;1.70;;;17.70;58.00;;;;;;5075166;28;20175;-62
2023/05/17 02:47:07;;;;;;;3.05;2.05;;;17.70;57.90;;;;;;5074688;28;20171;-61
2023/05/17 02:49:32;;;;;;;4.00;2.00;;;17.80;58.00;;;;;;5074330;28;20206;-61
2023/05/17 02:51:59;;;;;;;5.45;2.13;;;17.70;58.00;;;;;;5075026;28;20166;-61
2023/05/17 02:54:25;;;;;;;3.50;1.85;;;17.70;58.00;;;;;;5074830;28;20186;-61
2023/05/17 02:56:50;;;;;;;2.42;2.00;;;17.70;58.00;;;;;;5074190;28;20229;-62
2023/05/17 02:59:16;;;;;;;2.50;1.83;;;17.80;58.00;;;;;;5074757;28;20660;-62
2023/05/17 03:01:41;;;;;;;4.07;2.05;;;17.70;58.00;;;;;;5074785;28;20629;-63
2023/05/17 03:04:07;;;;;;;2.40;1.60;;;17.70;58.00;;;;;;5073652;28;20629;-62
2023/05/17 03:06:33;;;;;;;2.58;1.55;;;17.70;58.00;;;;;;5074579;28;20182;-62
2023/05/17 03:08:59;;;;;;;3.50;1.83;;;17.70;58.00;;;;;;5074716;28;20181;-61
2023/05/17 03:11:24;;;;;;;2.00;1.65;;;17.70;58.00;;;;;;5073625;28;20353;-61
2023/05/17 03:13:50;;;;;;;3.65;2.03;;;17.70;58.00;;;;;;5074474;28;20223;-61
2023/05/17 03:16:16;;;;;;;4.13;2.28;;;17.70;58.10;;;;;;5073884;28;20302;-61
2023/05/17 03:18:42;;;;;;;2.47;1.98;;;17.70;58.10;;;;;;5073522;28;20258;-61
2023/05/17 03:21:07;;;;;;;2.53;1.90;;;17.70;58.10;;;;;;5073892;28;20316;-61
2023/05/17 03:23:33;;;;;;;2.72;1.65;;;17.70;58.10;;;;;;5074109;28;20222;-61
2023/05/17 03:25:58;;;;;;;2.40;1.92;;;17.70;58.10;;;;;;5073414;28;20686;-62
2023/05/17 03:28:24;;;;;;;1.88;1.45;;;17.70;58.10;;;;;;5074004;28;20179;-61
2023/05/17 03:30:50;;;;;;;2.50;1.70;;;17.70;58.10;;;;;;5073428;28;20580;-62
2023/05/17 03:33:15;;;;;;;2.38;1.98;;;17.70;58.10;;;;;;5073686;28;20637;-62
2023/05/17 03:35:41;;;;;;;2.20;1.50;;;17.70;58.10;;;;;;5073765;28;20230;-62
2023/05/17 03:38:07;;;;;;;2.88;2.10;;;17.70;58.10;;;;;;5072697;28;21111;-61
2023/05/17 03:40:32;;;;;;;3.53;1.88;;;17.60;58.10;;;;;;5074018;28;20181;-61
2023/05/17 03:42:58;;;;;;;2.30;2.05;;;17.70;58.20;;;;;;5073952;28;20181;-61
2023/05/17 03:45:23;;;;;;;3.00;1.95;;;17.70;58.10;;;;;;5072918;28;20166;-61
2023/05/17 03:47:49;;;;;;;2.47;1.80;;;17.60;58.10;;;;;;5073695;28;20178;-61
2023/05/17 03:50:14;;;;;;;3.25;2.10;;;17.70;58.20;;;;;;5073341;28;20197;-61
2023/05/17 03:52:40;;;;;;;2.90;1.80;;;17.70;58.20;;;;;;5073237;28;20170;-61
2023/05/17 03:55:06;;;;;;;2.42;2.10;;;17.70;58.20;;;;;;5073450;28;20878;-61
2023/05/17 03:57:32;;;;;;;2.25;1.75;;;17.70;58.20;;;;;;5073765;28;20244;-61
2023/05/17 03:59:58;;;;;;;3.83;1.90;;;17.60;58.10;;;;;;5072923;28;20178;-62
2023/05/17 04:02:23;;;;;;;3.00;1.80;;;17.60;58.10;;;;;;5073256;28;20181;-61
2023/05/17 04:04:49;;;;;;;2.55;1.88;;;17.60;58.10;;;;;;5073499;28;20175;-62
2023/05/17 04:07:16;;;;;;;2.88;2.22;;;17.60;58.10;;;;;;5072558;28;20188;-62
2023/05/17 04:09:41;;;;;;;2.95;2.08;;;17.60;58.20;;;;;;5073451;28;20628;-61
2023/05/17 04:12:09;;;;;;;1.98;1.55;;;17.60;58.10;;;;;;5073001;28;20178;-61
2023/05/17 04:14:35;;;;;;;3.95;1.95;;;17.60;58.10;;;;;;5072470;28;20185;-61
2023/05/17 04:17:01;;;;;;;2.53;2.00;;;17.60;58.10;;;;;;5072914;28;20214;-61
2023/05/17 04:19:26;;;;;;;1.95;1.83;;;17.60;58.10;;;;;;5072915;28;20174;-61
2023/05/17 04:21:52;;;;;;;2.20;1.75;;;17.60;58.10;;;;;;5072343;28;20728;-61
2023/05/17 04:24:17;;;;;;;4.13;2.00;;;17.60;58.70;;;;;;5072901;28;20184;-61
2023/05/17 04:26:43;;;;;;;2.97;1.75;;;17.60;58.10;;;;;;5073542;28;20532;-61
2023/05/17 04:29:08;;;;;;;2.42;1.63;;;17.60;58.10;;;;;;5072160;28;20178;-61
2023/05/17 04:31:34;;;;;;;2.03;1.80;;;17.60;58.10;;;;;;5072992;28;20683;-62
2023/05/17 04:33:59;;;;;;;3.85;2.25;;;17.60;58.10;;;;;;5072736;28;20194;-63
2023/05/17 04:36:25;;;;;;;1.73;1.50;;;17.60;58.00;;;;;;5072033;28;20277;-62
2023/05/17 04:38:51;;;;;;;2.85;1.63;;;17.70;58.10;;;;;;5073116;28;20254;-61
2023/05/17 04:41:16;;;;;;;3.47;1.85;;;17.70;58.10;;;;;;5072199;28;20270;-61
2023/05/17 04:43:42;;;;;;;2.13;1.65;;;17.60;58.00;;;;;;5073042;28;20224;-62
2023/05/17 04:46:07;;;;;;;2.03;1.48;;;17.70;58.10;;;;;;5072742;28;20162;-61
2023/05/17 04:48:33;;;;;;;2.42;1.90;;;17.60;58.00;;;;;;5072298;28;20171;-62
2023/05/17 04:51:01;;;;;;;2.40;1.83;;;17.60;58.00;;;;;;5073049;28;20170;-61
2023/05/17 04:53:26;;;;;;;3.17;1.90;;;17.70;58.00;;;;;;5072711;28;20205;-61
2023/05/17 04:55:52;;;;;;;3.15;2.10;;;17.70;58.10;;;;;;5072163;28;20210;-61
2023/05/17 04:58:17;;;;;;;3.20;2.15;;;17.70;58.00;;;;;;5072504;28;20728;-61
2023/05/17 05:00:43;;;;;;;2.97;1.65;;;17.70;58.00;;;;;;5072425;28;20178;-62
2023/05/17 05:03:09;;;;;;;2.15;1.80;;;17.70;58.00;;;;;;5071806;28;20227;-62
2023/05/17 05:05:35;;;;;;;3.38;2.03;;;17.70;58.00;;;;;;5073093;28;20261;-62
2023/05/17 05:08:00;;;;;;;3.70;2.00;;;17.70;58.00;;;;;;5072980;28;20198;-61
2023/05/17 05:10:27;;;;;;;2.10;1.77;;;17.70;58.00;;;;;;5071580;28;20174;-61
2023/05/17 05:12:53;;;;;;;2.90;2.20;;;17.70;58.00;;;;;;5072545;28;20242;-61
2023/05/17 05:15:18;;;;;;;2.65;2.38;;;17.70;58.00;;;;;;5072210;28;20174;-61
2023/05/17 05:17:44;;;;;;;2.88;2.00;;;17.70;58.00;;;;;;5071751;28;20210;-61
2023/05/17 05:20:10;;;;;;;2.53;1.83;;;17.70;58.00;;;;;;5072455;28;20174;-61
2023/05/17 05:22:35;;;;;;;2.25;1.85;;;17.70;58.00;;;;;;5072519;28;20182;-61
2023/05/17 05:25:01;;;;;;;2.92;2.35;;;17.70;57.90;;;;;;5071945;28;20170;-61
2023/05/17 05:27:26;;;;;;;2.45;1.88;;;17.70;57.90;;;;;;5072256;28;20210;-61
2023/05/17 05:29:53;;;;;;;2.17;1.80;;;17.70;58.00;;;;;;5072564;28;20174;-62
2023/05/17 05:32:19;;;;;;;2.72;1.83;;;17.70;58.00;;;;;;5071391;28;20187;-61
2023/05/17 05:34:44;;;;;;;2.83;2.15;;;17.70;57.90;;;;;;5072264;28;20299;-62
2023/05/17 05:37:10;;;;;;;1.90;1.70;;;17.70;57.90;;;;;;5072062;28;20252;-62
2023/05/17 05:39:38;;;;;;;2.20;1.67;;;17.70;57.90;;;;;;5071574;28;20182;-62
2023/05/17 05:42:04;;;;;;;2.63;1.80;;;17.80;58.00;;;;;;5072262;28;20640;-62
2023/05/17 05:44:30;;;;;;;2.97;1.77;;;17.80;58.00;;;;;;5071675;28;20274;-62
2023/05/17 05:46:55;;;;;;;3.50;2.05;;;17.70;57.90;;;;;;5072244;28;20175;-62
2023/05/17 05:49:21;;;;;;;3.00;1.80;;;17.70;58.00;;;;;;5072080;28;20186;-62
2023/05/17 05:51:47;;;;;;;2.30;1.98;;;17.80;58.00;;;;;;5071664;28;20166;-61
2023/05/17 05:54:12;;;;;;;2.97;1.98;;;17.80;58.00;;;;;;5071911;28;20179;-61
2023/05/17 05:56:38;;;;;;;2.65;1.98;;;17.80;58.00;;;;;;5072229;28;20293;-61
2023/05/17 05:59:04;;;;;;;3.35;2.13;;;17.80;57.90;;;;;;5071733;28;20240;-62
2023/05/17 06:01:30;;;;;;;2.42;2.05;;;17.80;57.90;;;;;;5072154;28;20175;-62
2023/05/17 06:03:55;;;;;;;2.45;1.70;;;17.80;57.90;;;;;;5072337;28;20631;-62
2023/05/17 06:06:21;;;;;;;3.55;2.20;;;17.80;57.80;;;;;;5071149;28;20167;-62
2023/05/17 06:08:46;;;;;;;2.25;1.80;;;17.80;57.90;;;;;;5072216;28;20641;-62
2023/05/17 06:11:17;;;;;;;2.55;1.80;;;17.80;58.00;;;;;;5071818;28;20570;-61
2023/05/17 06:13:42;;;;;;;2.85;2.10;;;17.80;58.00;;;;;;5074222;28;20281;-61
2023/05/17 06:16:08;;;;;;;3.30;2.17;;;17.80;58.00;;;;;;5075080;28;20174;-61
2023/05/17 06:18:33;;;;;;;3.20;2.13;;;17.80;58.00;;;;;;5075588;28;20210;-61
2023/05/17 06:20:59;;;;;;;3.22;2.10;;;17.80;58.00;;;;;;5074873;28;20170;-61
2023/05/17 06:23:24;;;;;;;2.03;1.63;;;17.80;57.90;;;;;;5075189;28;20590;-61
2023/05/17 06:25:51;;;;;;;2.15;1.75;;;17.90;57.90;;;;;;5075343;28;20258;-61
2023/05/17 06:28:16;;;;;;;3.58;2.08;;;17.90;57.90;;;;;;5074423;28;20178;-62
2023/05/17 06:30:42;;;;;;;3.35;1.95;;;17.90;57.90;;;;;;5075275;28;20550;-62
2023/05/17 06:33:07;;;;;;;2.53;1.70;;;17.90;58.00;;;;;;5075184;28;20178;-62
2023/05/17 06:35:34;;;;;;;3.35;2.08;;;17.90;57.90;;;;;;5074435;28;20218;-62
2023/05/17 06:37:59;;;;;;;3.58;1.92;;;17.90;57.90;;;;;;5075106;28;20579;-62
2023/05/17 06:40:25;;;;;;;3.40;1.90;;;18.00;57.90;;;;;;5074853;28;20629;-62
2023/05/17 06:42:50;;;;;;;2.75;1.85;;;17.90;57.80;;;;;;5074297;28;20174;-62
2023/05/17 06:45:16;;;;;;;2.20;1.60;;;18.00;57.80;;;;;;5074568;28;20178;-62
2023/05/17 06:47:41;;;;;;;2.83;1.75;;;18.00;57.70;;;;;;5074836;28;20182;-62
2023/05/17 06:50:07;;;;;;;2.63;1.60;;;18.00;57.70;;;;;;5074710;28;20182;-62
2023/05/17 06:52:34;;;;;;;5.05;2.03;;;18.00;57.70;;;;;;5075082;28;20633;-62
2023/05/17 06:54:59;;;;;;;3.53;1.70;;;18.00;57.70;;;;;;5074318;28;20257;-61
2023/05/17 06:57:25;;;;;;;3.25;2.00;;;18.10;57.70;;;;;;5074506;28;20296;-62
2023/05/17 06:59:51;;;;;;;2.53;1.90;;;18.10;57.60;;;;;;5074749;28;20212;-62
2023/05/17 07:02:17;;;;;;;2.17;1.70;;;18.10;57.70;;;;;;5073970;28;20186;-62
2023/05/17 07:04:42;;;;;;;2.40;1.80;;;18.10;57.70;;;;;;5074689;28;20170;-63
2023/05/17 07:07:08;;;;;;;1.60;1.45;;;18.10;57.70;;;;;;5074515;28;20186;-62
2023/05/17 07:09:33;;;;;;;4.07;2.28;;;18.10;57.70;;;;;;5074172;28;20262;-63
2023/05/17 07:11:59;;;;;;;3.15;1.55;;;18.10;57.70;;;;;;5074713;28;20340;-62
2023/05/17 07:14:24;;;;;;;2.60;1.73;;;18.10;57.70;;;;;;5074145;28;20258;-61
2023/05/17 07:16:50;;;;;;;2.63;1.70;;;18.10;57.70;;;;;;5073711;28;20721;-62
2023/05/17 07:19:15;;;;;;;2.25;1.90;;;18.10;57.80;;;;;;5074110;28;20588;-61
2023/05/17 07:21:41;;;;;;;3.97;1.73;;;18.10;57.80;;;;;;5074350;28;20700;-61
2023/05/17 07:24:08;;;;;;;1.92;1.73;;;18.10;57.90;;;;;;5072830;28;20265;-61
2023/05/17 07:26:33;;;;;;;2.40;1.80;;;18.00;57.70;;;;;;5074363;28;20250;-62
2023/05/17 07:28:59;;;;;;;2.92;1.73;;;18.10;57.80;;;;;;5074185;28;20206;-62
2023/05/17 07:31:25;;;;;;;2.63;1.52;;;18.10;57.90;;;;;;5073324;28;20205;-62
2023/05/17 07:33:50;;;;;;;2.85;1.60;;;18.00;57.90;;;;;;5074315;28;20175;-62
2023/05/17 07:36:16;;;;;;;3.78;1.80;;;18.10;58.00;;;;;;5073633;28;20224;-62
2023/05/17 07:38:41;;;;;;;2.60;1.40;;;18.10;57.90;;;;;;5073476;28;20221;-62
2023/05/17 07:41:12;;;;;;;2.95;1.60;;;18.20;57.80;;;;;;5073787;28;20170;-62
2023/05/17 07:43:37;;;;;;;2.72;1.88;;;18.20;57.70;;;;;;5073919;28;20174;-62
2023/05/17 07:46:03;;;;;;;3.13;1.80;;;18.20;57.60;;;;;;5073450;28;20265;-62
2023/05/17 07:48:28;;;;;;;3.92;1.80;;;18.30;57.60;;;;;;5073609;28;20178;-62
2023/05/17 07:50:54;;;;;;;2.65;1.55;;;18.20;57.60;;;;;;5073911;28;20181;-62
2023/05/17 07:53:19;;;;;;;4.30;2.13;;;18.20;57.70;;;;;;5072822;28;20178;-61
2023/05/17 07:55:45;;;;;;;2.80;1.63;;;18.10;57.80;;;;;;5073677;28;20291;-62
2023/05/17 07:58:11;;;;;;;2.65;1.60;;;18.20;57.80;;;;;;5072490;28;20286;-62
2023/05/17 08:00:37;;;;;;;4.22;1.73;;;18.30;57.70;;;;;;5073779;28;20181;-63
2023/05/17 08:03:02;;;;;;;2.15;1.95;;;18.30;57.50;;;;;;5073801;28;20171;-63
2023/05/17 08:05:28;;;;;;;2.38;1.50;;;18.30;57.60;;;;;;5072650;28;20549;-64
2023/05/17 08:07:53;;;;;;;1.83;1.60;;;18.30;57.60;;;;;;5073520;28;20178;-62
2023/05/17 08:10:19;;;;;;;2.38;1.33;;;18.30;57.60;;;;;;5073177;28;20181;-62
2023/05/17 08:12:45;;;;;;;3.03;1.65;;;18.40;57.60;;;;;;5072602;28;20201;-61
2023/05/17 08:15:11;;;;;;;1.92;1.60;;;18.30;57.60;;;;;;5072906;28;20174;-61
2023/05/17 08:17:36;;;;;;;2.30;1.60;;;18.30;57.70;;;;;;5073364;28;20305;-62
2023/05/17 08:20:03;;;;;;;2.35;1.35;;;18.30;57.60;;;;;;5072655;28;20174;-61
2023/05/17 08:22:28;;;;;;;2.90;1.65;;;18.40;57.70;;;;;;5073073;28;20174;-61
2023/05/17 08:24:54;;;;;;;4.05;1.52;;;18.30;57.60;;;;;;5073275;28;20524;-61
2023/05/17 08:27:19;;;;;;;1.85;1.38;;;18.40;57.60;;;;;;5072135;28;20186;-62
2023/05/17 08:29:45;;;;;;;3.28;1.85;;;18.50;57.50;;;;;;5073338;28;20176;-62
2023/05/17 08:32:10;;;;;;;2.05;1.67;;;18.50;57.50;;;;;;5073047;28;20174;-62
2023/05/17 08:34:36;;;;;;;2.10;1.65;;;18.40;57.50;;;;;;5071614;28;20222;-62
2023/05/17 08:37:02;;;;;;;2.60;1.40;;;18.40;57.60;;;;;;5073088;28;20271;-62
2023/05/17 08:39:27;;;;;;;2.25;1.48;;;18.40;57.70;;;;;;5072710;28;20686;-62
2023/05/17 08:41:58;;;;;;;1.95;1.50;;;18.40;57.70;;;;;;5072168;28;20702;-61
2023/05/17 08:44:23;;;;;;;3.25;1.58;;;18.30;57.70;;;;;;5072886;28;20182;-62
2023/05/17 08:46:52;;;;;;;2.00;1.30;;;18.40;57.80;;;;;;5071582;28;20273;-60
2023/05/17 08:49:20;;;;;;;2.63;1.48;;;18.40;57.70;;;;;;5070719;28;20205;-62
2023/05/17 08:51:47;;;;;;;1.98;1.27;;;18.50;57.60;;;;;;5071484;28;20171;-61
2023/05/17 08:54:13;;;;;;;2.22;1.58;;;18.60;57.40;;;;;;5071540;28;20264;-62
2023/05/17 08:56:39;;;;;;;2.95;1.50;;;18.50;57.30;;;;;;5072010;28;20205;-62
2023/05/17 08:59:04;;;;;;;1.50;1.40;;;18.60;57.40;;;;;;5071609;28;20204;-62
2023/05/17 09:01:30;;;;;;;2.00;1.25;;;18.60;57.30;;;;;;5070989;28;20170;-62
2023/05/17 09:03:55;;;;;;;2.22;1.67;;;18.70;57.30;;;;;;5072815;28;20181;-62
2023/05/17 09:06:22;;;;;;;2.00;1.42;;;18.70;57.10;;;;;;5072628;28;20178;-62
2023/05/17 09:08:51;;;;;;;4.13;1.75;;;18.80;57.00;;;;;;5071945;28;20228;-62
2023/05/17 09:11:27;;;;;;;1.80;1.20;;;18.80;57.00;;;;;;5072569;28;20183;-61
2023/05/17 09:13:56;;;;;;;1.65;1.20;;;18.80;56.90;;;;;;5072961;28;20232;-62
2023/05/17 09:16:22;;;;;;;3.78;2.13;;;18.90;56.90;;;;;;5071485;28;20678;-62
2023/05/17 09:18:54;;;;;;;2.40;1.42;;;18.80;57.10;;;;;;5072680;28;20301;-61
2023/05/17 09:21:21;;;;;;;2.15;1.17;;;18.80;57.00;;;;;;5072233;28;20228;-61
2023/05/17 09:23:47;;;;;;;1.75;1.48;;;18.90;56.90;;;;;;5071911;28;20243;-61
2023/05/17 09:26:12;;;;;;;3.78;1.48;;;18.90;56.90;;;;;;5072326;28;20632;-61
2023/05/17 09:28:39;;;;;;;2.08;1.20;;;18.90;57.00;;;;;;5072696;28;20190;-62
2023/05/17 09:31:06;;;;;;;2.40;1.30;;;18.90;57.00;;;;;;5071651;28;20717;-62
2023/05/17 09:33:31;;;;;;;2.47;1.23;;;19.00;56.90;;;;;;5072494;28;20175;-62
2023/05/17 09:35:57;;;;;;;2.47;1.40;;;19.00;56.90;;;;;;5072199;28;20301;-62
2023/05/17 09:38:24;;;;;;;2.15;1.35;;;19.00;56.90;;;;;;5071505;28;20297;-62
2023/05/17 09:40:50;;;;;;;2.03;1.50;;;18.90;57.00;;;;;;5072331;28;20641;-62
2023/05/17 09:43:16;;;;;;;1.83;1.10;;;18.80;57.10;;;;;;5072292;28;20186;-61
2023/05/17 09:45:41;;;;;;;1.75;1.40;;;18.80;57.20;;;;;;5070462;28;20224;-62
2023/05/17 09:48:13;;;;;;;1.50;1.10;;;18.80;57.30;;;;;;5076199;28;20637;-62
2023/05/17 09:50:46;;;;;;;2.17;1.10;;;18.90;57.20;;;;;;5075255;28;20170;-62
2023/05/17 09:53:41;;;;;;;1.52;1.15;;;18.80;57.30;;;;;;5075998;28;20289;-61
2023/05/17 09:56:08;;;;;;;1.77;0.93;;;18.90;57.20;;;;;;5066774;28;20198;-62
2023/05/17 09:58:35;;;;;;;1.40;1.30;;;18.80;57.30;;;;;;5075182;28;20699;-62
2023/05/17 10:01:05;;;;;;;2.13;1.38;;;18.80;57.30;;;;;;5075887;28;20171;-63
2023/05/17 10:03:34;;;;;;;1.40;1.30;;;18.90;57.30;;;;;;5076096;28;20171;-63
2023/05/17 10:06:08;;;;;;;3.00;1.20;;;19.00;57.10;;;;;;5075421;28;20223;-63
2023/05/17 10:08:33;;;;;;;2.17;1.40;;;19.00;57.00;;;;;;5075816;28;20634;-62
2023/05/17 10:11:03;;;;;;;3.28;1.48;;;18.90;57.20;;;;;;5075844;28;20213;-61
2023/05/17 10:13:33;;;;;;;1.38;1.15;;;18.90;57.30;;;;;;5074691;28;20312;-61
2023/05/17 10:15:59;;;;;;;1.45;1.00;;;18.80;57.40;;;;;;5074478;28;20174;-61
2023/05/17 10:18:25;;;;;;;1.52;1.10;;;18.90;57.40;;;;;;5075136;28;20699;-62
2023/05/17 10:20:50;;;;;;;2.92;1.30;;;18.90;57.30;;;;;;5073788;28;20166;-61
2023/05/17 10:23:16;;;;;;;1.17;0.85;;;19.00;57.30;;;;;;5074113;28;20178;-61
2023/05/17 10:25:42;;;;;;;1.88;1.00;;;19.00;57.30;;;;;;5074179;28;20177;-62
2023/05/17 10:28:08;;;;;;;2.17;1.20;;;19.00;57.30;;;;;;5073336;28;20177;-62
2023/05/17 10:30:33;;;;;;;1.48;0.93;;;19.00;57.20;;;;;;5074306;28;20644;-62
2023/05/17 10:32:59;;;;;;;1.48;1.20;;;19.00;57.20;;;;;;5073630;28;20658;-62
2023/05/17 10:35:26;;;;;;;1.85;1.20;;;19.10;57.10;;;;;;5074756;28;20599;-62
2023/05/17 10:37:51;;;;;;;1.92;1.23;;;19.10;57.00;;;;;;5074013;28;20669;-62
2023/05/17 10:40:18;;;;;;;2.88;1.13;;;19.00;57.20;;;;;;5074291;28;20174;-62
2023/05/17 10:42:46;;;;;;;2.50;1.15;;;19.10;57.30;;;;;;5073929;28;20193;-62
2023/05/17 10:45:12;;;;;;;1.73;1.30;;;19.10;57.20;;;;;;5073830;28;20198;-62
2023/05/17 10:47:41;;;;;;;2.38;1.55;;;19.10;57.10;;;;;;5074481;28;20655;-62
2023/05/17 10:50:13;;;;;;;1.95;1.23;;;19.20;57.10;;;;;;5074864;28;20178;-62
2023/05/17 10:52:45;;;;;;;2.20;1.15;;;19.20;57.00;;;;;;5074991;28;20263;-62
2023/05/17 10:55:11;;;;;;;1.83;1.20;;;19.20;57.10;;;;;;5073947;28;20170;-62
2023/05/17 10:57:37;;;;;;;1.63;1.05;;;19.20;57.00;;;;;;5072870;28;20289;-62
2023/05/17 11:00:07;;;;;;;1.77;1.13;;;19.20;57.00;;;;;;5075049;28;20174;-63
2023/05/17 11:02:33;;;;;;;1.52;1.13;;;19.20;57.00;;;;;;5074312;28;20206;-63
2023/05/17 11:04:59;;;;;;;1.92;1.00;;;19.20;56.90;;;;;;5074901;28;20645;-62
2023/05/17 11:07:31;;;;;;;1.75;1.20;;;19.20;56.90;;;;;;5074299;28;20232;-62
2023/05/17 11:10:04;;;;;;;2.60;1.02;;;19.20;56.90;;;;;;5072784;28;20261;-62
2023/05/17 11:12:37;;;;;;;1.00;0.90;;;19.30;57.00;;;;;;5074787;28;20311;-61
2023/05/17 11:15:06;;;;;;;1.23;0.88;;;19.30;57.00;;;;;;5073974;28;20261;-62
2023/05/17 11:17:41;;;;;;;0.80;0.80;;;19.30;56.90;;;;;;5074287;28;20692;-61
2023/05/17 11:20:10;;;;;;;1.75;0.90;;;19.30;56.90;;;;;;5074101;28;20173;-61
2023/05/17 11:22:41;;;;;;;1.85;1.05;;;19.30;57.00;;;;;;5073865;28;20221;-61
2023/05/17 11:25:15;;;;;;;1.92;0.90;;;19.30;57.00;;;;;;5074259;28;20190;-64
2023/05/17 11:27:45;;;;;;;1.30;1.13;;;19.30;57.00;;;;;;5074525;28;20541;-63
2023/05/17 11:30:25;;;;;;;1.48;1.10;;;19.30;56.90;;;;;;5073295;28;20174;-62
2023/05/17 11:32:58;;;;;;;0.80;0.70;;;19.40;57.00;;;;;;5074291;28;20175;-63
2023/05/17 11:35:27;;;;;;;1.65;1.08;;;19.40;56.90;;;;;;5073616;28;20695;-62
2023/05/17 11:37:53;;;;;;;2.80;0.95;;;19.30;56.90;;;;;;5073478;28;20218;-62
2023/05/17 11:40:26;;;;;;;2.22;1.20;;;19.40;57.00;;;;;;5073787;28;20258;-62
2023/05/17 11:43:15;;;;;;;2.45;0.90;;;19.40;57.00;;;;;;5073838;28;20546;-62
2023/05/17 11:45:43;;;;;;;0.93;0.80;;;19.40;57.00;;;;;;5072737;28;20581;-62
2023/05/17 11:48:12;;;;;;;2.10;1.40;;;19.40;57.00;;;;;;5073715;28;20201;-62
2023/05/17 11:50:38;;;;;;;1.77;1.10;;;19.40;57.00;;;;;;5073238;28;20220;-61
2023/05/17 11:53:08;;;;;;;1.58;0.90;;;19.40;56.90;;;;;;5073850;28;20586;-62
2023/05/17 11:55:37;;;;;;;1.55;1.00;;;19.40;56.90;;;;;;5073709;28;20163;-62
2023/05/17 11:58:02;;;;;;;1.70;0.93;;;19.50;56.90;;;;;;5073202;28;20305;-62
2023/05/17 12:00:28;;;;;;;1.17;0.90;;;19.50;56.90;;;;;;5072419;28;20583;-63
2023/05/17 12:02:54;;;;;;;1.52;1.10;;;19.50;56.90;;;;;;5073927;28;20170;-63
2023/05/17 12:05:19;;;;;;;1.48;1.08;;;19.50;56.80;;;;;;5072660;28;20170;-62
2023/05/17 12:07:45;;;;;;;1.77;1.08;;;19.50;56.80;;;;;;5073673;28;20177;-62
2023/05/17 12:10:12;;;;;;;1.33;1.02;;;19.50;56.80;;;;;;5073127;28;20171;-62
2023/05/17 12:12:37;;;;;;;1.63;0.98;;;19.50;56.80;;;;;;5071467;28;20180;-61
2023/05/17 12:15:03;;;;;;;1.10;0.82;;;19.60;56.80;;;;;;5072067;28;20261;-62
2023/05/17 12:17:33;;;;;;;1.10;0.90;;;19.60;56.80;;;;;;5071813;28;20214;-62
2023/05/17 12:20:09;;;;;;;1.92;1.13;;;19.60;56.80;;;;;;5072703;28;20197;-62
2023/05/17 12:22:52;;;;;;;1.73;1.38;;;19.60;56.80;;;;;;5073328;28;20182;-61
2023/05/17 12:25:19;;;;;;;1.33;1.00;;;19.60;56.80;;;;;;5071405;28;20575;-62
2023/05/17 12:27:44;;;;;;;1.85;1.08;;;19.60;56.80;;;;;;5073388;28;20182;-62
2023/05/17 12:30:14;;;;;;;0.95;0.75;;;19.60;56.80;;;;;;5072882;28;20177;-63
2023/05/17 12:32:42;;;;;;;2.53;1.08;;;19.60;56.80;;;;;;5072276;28;20188;-62
2023/05/17 12:35:08;;;;;;;1.63;1.00;;;19.60;56.80;;;;;;5072495;28;20571;-62
2023/05/17 12:37:33;;;;;;;2.15;1.10;;;19.70;56.80;;;;;;5071759;28;20217;-62
2023/05/17 12:40:03;;;;;;;1.75;1.02;;;19.70;56.80;;;;;;5072375;28;20202;-62
2023/05/17 12:42:29;;;;;;;1.63;0.88;;;19.70;56.80;;;;;;5072863;28;20174;-62
2023/05/17 12:44:55;;;;;;;1.95;0.95;;;19.70;56.80;;;;;;5071854;28;20166;-62
2023/05/17 12:47:20;;;;;;;1.58;0.95;;;19.70;56.80;;;;;;5071982;28;20247;-62